Time;durP1;ratioP1;P1;durP2;ratioP2;P2;SDS_P1;SDS_P2;PMS_P1;PMS_P2;Temp;Humidity;BMP_temperature;BMP_pressure;BME280_temperature;BME280_humidity;BME280_pressure;Samples;Min_cycle;Max_cycle;Signal;HPM_P1;HPM_P2
2023/07/17 00:01:19;;;;;;;8.37;2.10;;;16.10;99.90;;;;;;5092948;28;20028;-68
2023/07/17 00:03:45;;;;;;;3.10;1.27;;;16.10;99.90;;;;;;5093305;28;20034;-68
2023/07/17 00:06:10;;;;;;;2.03;0.90;;;16.10;99.90;;;;;;5089541;28;20020;-67
2023/07/17 00:08:36;;;;;;;7.30;1.60;;;16.10;99.90;;;;;;5096685;28;20279;-68
2023/07/17 00:11:02;;;;;;;3.43;1.67;;;16.10;99.90;;;;;;5096387;28;20026;-68
2023/07/17 00:13:28;;;;;;;6.43;1.20;;;16.10;99.90;;;;;;5084247;28;20024;-67
2023/07/17 00:15:54;;;;;;;4.70;1.50;;;16.10;99.90;;;;;;5093516;28;20020;-67
2023/07/17 00:18:19;;;;;;;6.22;1.92;;;16.20;99.90;;;;;;5095739;28;20024;-67
2023/07/17 00:20:45;;;;;;;11.03;1.67;;;16.20;99.90;;;;;;5094893;28;20024;-77
2023/07/17 00:23:11;;;;;;;4.63;1.33;;;16.20;99.90;;;;;;5096868;28;20094;-68
2023/07/17 00:25:37;;;;;;;3.63;0.87;;;16.20;99.90;;;;;;5098083;28;20028;-68
2023/07/17 00:28:02;;;;;;;5.23;1.47;;;16.20;99.90;;;;;;5096635;28;20322;-76
2023/07/17 00:30:28;;;;;;;3.80;1.20;;;16.20;99.90;;;;;;5094059;28;20418;-73
2023/07/17 00:32:54;;;;;;;5.33;1.23;;;16.20;99.90;;;;;;5096115;28;20403;-68
2023/07/17 00:35:19;;;;;;;6.93;1.27;;;16.20;99.90;;;;;;5097202;28;20036;-68
2023/07/17 00:37:46;;;;;;;1.33;1.23;;;16.20;99.90;;;;;;5096975;28;20402;-68
2023/07/17 00:40:12;;;;;;;5.55;1.65;;;16.20;99.90;;;;;;5096192;28;20047;-67
2023/07/17 00:42:38;;;;;;;2.28;1.13;;;16.20;99.90;;;;;;5079176;28;20068;-69
2023/07/17 00:45:05;;;;;;;6.67;1.50;;;16.20;99.90;;;;;;5096735;28;20107;-67
2023/07/17 00:47:32;;;;;;;5.30;1.27;;;16.20;99.90;;;;;;5095178;28;20284;-67
2023/07/17 00:49:58;;;;;;;3.40;1.10;;;16.20;99.90;;;;;;5091758;28;20043;-67
2023/07/17 00:52:25;;;;;;;2.13;1.27;;;16.20;99.90;;;;;;5095657;28;20500;-67
2023/07/17 00:54:51;;;;;;;4.68;0.95;;;16.20;99.90;;;;;;5094352;28;20056;-67
2023/07/17 00:57:18;;;;;;;4.45;1.33;;;16.10;99.90;;;;;;5096822;28;20059;-68
2023/07/17 00:59:43;;;;;;;5.47;1.40;;;16.10;99.90;;;;;;5096796;28;20110;-67
2023/07/17 01:02:11;;;;;;;2.30;1.10;;;16.10;99.90;;;;;;5095976;28;20116;-68
2023/07/17 01:04:42;;;;;;;4.40;1.17;;;16.10;99.90;;;;;;5096448;28;20040;-67
2023/07/17 01:07:08;;;;;;;4.28;1.77;;;16.10;99.90;;;;;;5096105;28;20035;-67
2023/07/17 01:09:35;;;;;;;5.37;1.40;;;16.00;99.90;;;;;;5077911;28;20028;-66
2023/07/17 01:12:01;;;;;;;5.60;1.20;;;16.10;99.90;;;;;;5097517;28;20058;-67
2023/07/17 01:14:28;;;;;;;5.57;1.47;;;16.00;99.90;;;;;;5082629;28;20056;-66
2023/07/17 01:16:54;;;;;;;4.10;1.23;;;16.00;99.90;;;;;;5097242;28;20020;-68
2023/07/17 01:19:20;;;;;;;2.67;1.10;;;16.00;99.90;;;;;;5096623;28;20311;-67
2023/07/17 01:22:00;;;;;;;2.33;1.00;;;16.00;99.90;;;;;;5088282;28;20020;-68
2023/07/17 01:24:26;;;;;;;3.75;1.45;;;16.00;99.90;;;;;;5097033;28;20058;-81
2023/07/17 01:26:53;;;;;;;6.40;2.38;;;16.00;99.90;;;;;;5097312;28;20028;-67
2023/07/17 01:29:19;;;;;;;6.50;1.40;;;15.90;99.90;;;;;;5096916;28;20035;-67
2023/07/17 01:31:45;;;;;;;11.07;1.57;;;15.90;99.90;;;;;;5091805;28;20031;-68
2023/07/17 01:34:10;;;;;;;5.95;1.55;;;15.90;99.90;;;;;;5066525;28;20403;-67
2023/07/17 01:36:36;;;;;;;5.77;2.23;;;15.90;99.90;;;;;;5090173;28;20036;-80
2023/07/17 01:39:02;;;;;;;2.53;1.13;;;15.90;99.90;;;;;;5096542;28;20047;-67
2023/07/17 01:41:27;;;;;;;2.20;1.00;;;15.90;99.90;;;;;;5094778;28;20402;-67
2023/07/17 01:43:53;;;;;;;3.30;1.50;;;15.80;99.90;;;;;;5091850;28;20031;-66
2023/07/17 01:46:19;;;;;;;4.20;1.47;;;15.90;99.90;;;;;;5097088;28;20103;-67
2023/07/17 01:48:45;;;;;;;4.27;1.50;;;15.90;99.90;;;;;;5094758;28;20430;-67
2023/07/17 01:51:11;;;;;;;6.53;1.97;;;15.80;99.90;;;;;;5095421;28;20110;-66
2023/07/17 01:53:36;;;;;;;5.63;1.93;;;15.80;99.90;;;;;;5095171;28;20110;-66
2023/07/17 01:56:02;;;;;;;2.33;1.10;;;15.80;99.90;;;;;;5095859;28;20287;-68
2023/07/17 01:58:28;;;;;;;11.52;1.88;;;15.80;99.90;;;;;;5095723;28;20369;-68
2023/07/17 02:00:55;;;;;;;3.50;1.33;;;15.80;99.90;;;;;;5096430;28;20021;-67
2023/07/17 02:03:21;;;;;;;6.10;1.42;;;15.80;99.90;;;;;;5096311;28;20047;-67
2023/07/17 02:05:49;;;;;;;5.65;1.40;;;15.80;99.90;;;;;;5093176;28;20028;-68
2023/07/17 02:08:15;;;;;;;4.75;2.10;;;15.80;99.90;;;;;;5069718;28;20028;-66
2023/07/17 02:10:42;;;;;;;3.23;1.47;;;15.80;99.90;;;;;;5096488;28;20032;-67
2023/07/17 02:13:08;;;;;;;2.60;1.80;;;15.70;99.90;;;;;;5095315;28;20036;-69
2023/07/17 02:15:33;;;;;;;5.07;1.30;;;15.70;99.90;;;;;;5087786;28;20028;-67
2023/07/17 02:17:59;;;;;;;2.43;0.80;;;15.70;99.90;;;;;;5095668;28;20422;-67
2023/07/17 02:20:25;;;;;;;5.37;1.70;;;15.70;99.90;;;;;;5091309;28;20029;-67
2023/07/17 02:22:50;;;;;;;4.30;1.33;;;15.70;99.90;;;;;;5090514;28;20063;-67
2023/07/17 02:25:17;;;;;;;5.73;1.53;;;15.70;99.90;;;;;;5095543;28;20107;-67
2023/07/17 02:27:42;;;;;;;1.65;0.98;;;15.70;99.90;;;;;;5081101;28;20047;-67
2023/07/17 02:30:08;;;;;;;1.47;1.00;;;15.60;99.90;;;;;;5086472;28;20439;-68
2023/07/17 02:32:34;;;;;;;4.13;1.42;;;15.60;99.90;;;;;;5095480;28;20028;-66
2023/07/17 02:35:00;;;;;;;2.00;1.20;;;15.60;99.90;;;;;;5080972;28;20061;-67
2023/07/17 02:37:26;;;;;;;5.17;1.50;;;15.60;99.90;;;;;;5094682;28;20717;-68
2023/07/17 02:39:52;;;;;;;11.50;1.73;;;15.60;99.90;;;;;;5095505;28;20028;-68
2023/07/17 02:42:18;;;;;;;4.60;1.88;;;15.50;99.90;;;;;;5094014;28;20073;-67
2023/07/17 02:44:44;;;;;;;3.43;1.60;;;15.50;99.90;;;;;;5095967;28;20027;-68
2023/07/17 02:47:10;;;;;;;4.20;1.77;;;15.50;99.90;;;;;;5090117;28;20032;-66
2023/07/17 02:49:37;;;;;;;7.20;2.23;;;15.50;99.90;;;;;;5083297;28;20473;-67
2023/07/17 02:52:04;;;;;;;9.05;1.65;;;15.50;99.90;;;;;;5092784;28;20106;-67
2023/07/17 02:54:30;;;;;;;3.03;1.23;;;15.50;99.90;;;;;;5094311;28;20051;-67
2023/07/17 02:56:55;;;;;;;3.33;1.70;;;15.50;99.90;;;;;;5060793;28;20415;-78
2023/07/17 02:59:21;;;;;;;10.57;2.43;;;15.50;99.90;;;;;;5081097;28;20438;-67
2023/07/17 03:01:48;;;;;;;6.07;2.07;;;15.50;99.90;;;;;;5100999;28;20024;-67
2023/07/17 03:04:14;;;;;;;3.30;1.30;;;15.50;99.90;;;;;;5094141;28;20020;-67
2023/07/17 03:06:40;;;;;;;3.25;1.70;;;15.50;99.90;;;;;;5094356;28;20028;-68
2023/07/17 03:09:06;;;;;;;8.52;2.30;;;15.50;99.90;;;;;;5073461;28;20024;-67
2023/07/17 03:11:32;;;;;;;5.68;1.52;;;15.50;99.90;;;;;;5091789;28;20034;-68
2023/07/17 03:13:58;;;;;;;10.63;1.70;;;15.50;99.90;;;;;;5091023;28;20028;-69
2023/07/17 03:16:24;;;;;;;7.93;2.37;;;15.50;99.90;;;;;;5082616;28;20028;-68
2023/07/17 03:18:49;;;;;;;6.63;2.20;;;15.50;99.90;;;;;;5094602;28;20028;-67
2023/07/17 03:21:15;;;;;;;6.00;1.80;;;15.50;99.90;;;;;;5092452;28;20039;-77
2023/07/17 03:23:41;;;;;;;13.27;2.40;;;15.50;99.90;;;;;;5094719;28;20441;-68
2023/07/17 03:26:06;;;;;;;8.27;2.07;;;15.50;99.90;;;;;;5080220;28;20343;-68
2023/07/17 03:28:32;;;;;;;4.10;1.70;;;15.50;99.90;;;;;;5094245;28;20365;-66
2023/07/17 03:30:58;;;;;;;4.67;1.43;;;15.50;99.90;;;;;;5093565;28;20020;-71
2023/07/17 03:33:24;;;;;;;2.73;1.60;;;15.50;99.90;;;;;;5094919;28;20033;-66
2023/07/17 03:35:50;;;;;;;7.13;1.90;;;15.40;99.90;;;;;;5093203;28;20020;-67
2023/07/17 03:38:16;;;;;;;6.63;1.70;;;15.40;99.90;;;;;;5091848;28;20153;-67
2023/07/17 03:40:41;;;;;;;3.40;1.90;;;15.40;99.90;;;;;;5100859;28;20039;-66
2023/07/17 03:43:07;;;;;;;8.87;2.30;;;15.40;99.90;;;;;;5080153;28;20023;-67
2023/07/17 03:45:33;;;;;;;8.07;2.00;;;15.40;99.90;;;;;;5087564;28;20027;-67
2023/07/17 03:47:59;;;;;;;7.07;1.80;;;15.40;99.90;;;;;;5079618;28;20526;-67
2023/07/17 03:50:24;;;;;;;5.80;1.57;;;15.40;99.90;;;;;;5094545;28;20024;-67
2023/07/17 03:52:50;;;;;;;5.10;1.63;;;15.40;99.90;;;;;;5094778;28;20024;-67
2023/07/17 03:55:16;;;;;;;5.53;1.90;;;15.40;99.90;;;;;;5080144;28;20068;-67
2023/07/17 03:57:41;;;;;;;9.63;2.07;;;15.40;99.90;;;;;;5074608;28;20020;-77
2023/07/17 04:00:14;;;;;;;7.90;1.87;;;15.40;99.90;;;;;;5093915;28;20101;-74
2023/07/17 04:02:44;;;;;;;5.45;1.70;;;15.40;99.90;;;;;;5093386;28;20026;-68
2023/07/17 04:05:12;;;;;;;12.32;2.08;;;15.30;99.90;;;;;;5092723;28;20032;-67
2023/07/17 04:07:38;;;;;;;6.57;1.88;;;15.30;99.90;;;;;;5094063;28;20056;-67
2023/07/17 04:10:05;;;;;;;7.83;2.50;;;15.30;99.90;;;;;;5091879;28;20489;-67
2023/07/17 04:12:32;;;;;;;5.43;2.45;;;15.30;99.90;;;;;;5091830;28;20419;-67
2023/07/17 04:14:58;;;;;;;4.28;2.15;;;15.30;99.90;;;;;;5092873;28;20378;-67
2023/07/17 04:17:23;;;;;;;4.90;2.00;;;15.30;99.90;;;;;;5093770;28;20051;-67
2023/07/17 04:19:49;;;;;;;13.07;2.90;;;15.30;99.90;;;;;;5093442;28;20353;-67
2023/07/17 04:22:15;;;;;;;12.77;2.20;;;15.30;99.90;;;;;;5088458;28;20118;-67
2023/07/17 04:24:40;;;;;;;8.77;2.53;;;15.40;99.90;;;;;;5074583;28;20326;-67
2023/07/17 04:27:06;;;;;;;5.43;2.33;;;15.30;99.90;;;;;;5094413;28;20028;-77
2023/07/17 04:29:31;;;;;;;10.17;2.40;;;15.30;99.90;;;;;;5089872;28;20454;-67
2023/07/17 04:31:57;;;;;;;7.80;2.37;;;15.40;99.90;;;;;;5091906;28;20044;-67
2023/07/17 04:34:23;;;;;;;9.83;2.17;;;15.40;99.90;;;;;;5092696;28;20032;-67
2023/07/17 04:36:49;;;;;;;6.77;2.33;;;15.50;99.90;;;;;;5093766;28;20031;-67
2023/07/17 04:39:14;;;;;;;9.63;2.40;;;15.50;99.90;;;;;;5094440;28;20411;-66
2023/07/17 04:41:40;;;;;;;8.87;2.20;;;15.60;99.90;;;;;;5079523;28;20027;-67
2023/07/17 04:44:06;;;;;;;9.00;2.60;;;15.70;99.90;;;;;;5075194;28;20040;-66
2023/07/17 04:46:31;;;;;;;7.53;2.43;;;15.60;99.90;;;;;;5092785;28;20315;-67
2023/07/17 04:48:57;;;;;;;6.07;2.40;;;15.70;99.90;;;;;;5093999;28;20048;-77
2023/07/17 04:51:23;;;;;;;5.50;2.10;;;15.60;99.90;;;;;;5092779;28;20029;-67
2023/07/17 04:53:49;;;;;;;10.52;2.40;;;15.60;99.90;;;;;;5079374;28;20027;-67
2023/07/17 04:56:14;;;;;;;17.10;2.87;;;15.70;99.90;;;;;;5096487;28;20032;-67
2023/07/17 04:58:40;;;;;;;14.13;3.20;;;15.70;99.90;;;;;;5097287;28;20020;-68
2023/07/17 05:01:06;;;;;;;6.67;2.97;;;15.70;99.90;;;;;;5096887;28;20082;-67
2023/07/17 05:03:32;;;;;;;10.93;3.47;;;15.70;99.90;;;;;;5094950;28;20027;-66
2023/07/17 05:05:58;;;;;;;4.37;2.03;;;15.60;99.90;;;;;;5090532;28;22657;-80
2023/07/17 05:08:25;;;;;;;6.43;2.87;;;15.60;99.90;;;;;;5089418;28;20051;-68
2023/07/17 05:10:57;;;;;;;15.32;3.95;;;15.70;99.90;;;;;;5076350;28;20033;-67
2023/07/17 05:13:23;;;;;;;9.15;2.92;;;15.70;99.90;;;;;;5097214;28;20034;-68
2023/07/17 05:15:49;;;;;;;7.70;2.67;;;15.70;99.90;;;;;;5089231;28;20040;-68
2023/07/17 05:18:15;;;;;;;11.75;3.03;;;15.80;99.90;;;;;;5078747;28;20021;-68
2023/07/17 05:20:45;;;;;;;8.33;3.53;;;15.80;99.90;;;;;;5083588;28;20757;-68
2023/07/17 05:23:11;;;;;;;9.02;2.28;;;15.90;99.90;;;;;;5087809;28;20024;-67
2023/07/17 05:25:37;;;;;;;8.93;3.22;;;15.90;99.90;;;;;;5085851;28;20020;-67
2023/07/17 05:28:04;;;;;;;7.13;2.37;;;16.00;99.90;;;;;;5086457;28;20028;-80
2023/07/17 05:30:33;;;;;;;10.82;2.80;;;16.00;99.90;;;;;;5083254;28;20013;-67
2023/07/17 05:32:59;;;;;;;13.93;3.47;;;16.00;99.90;;;;;;5087538;28;20025;-67
2023/07/17 05:35:24;;;;;;;7.57;3.10;;;16.00;99.90;;;;;;5091921;28;20032;-67
2023/07/17 05:37:50;;;;;;;14.67;3.10;;;16.10;99.90;;;;;;5086295;28;20426;-67
2023/07/17 05:40:16;;;;;;;6.50;2.60;;;16.10;99.90;;;;;;5081067;28;20445;-68
2023/07/17 05:42:42;;;;;;;17.60;3.70;;;16.20;99.90;;;;;;5084876;28;20025;-67
2023/07/17 05:45:09;;;;;;;6.45;2.80;;;16.20;99.90;;;;;;5085665;28;20366;-67
2023/07/17 05:47:36;;;;;;;15.18;3.92;;;16.20;99.90;;;;;;5093935;28;20444;-68
2023/07/17 05:50:01;;;;;;;8.77;2.83;;;16.30;99.90;;;;;;5077322;28;20028;-68
2023/07/17 05:52:27;;;;;;;15.10;3.20;;;16.20;99.90;;;;;;5089862;28;20317;-67
2023/07/17 05:54:52;;;;;;;9.10;3.30;;;16.20;99.90;;;;;;5083110;28;20067;-67
2023/07/17 05:57:18;;;;;;;11.13;3.83;;;16.20;99.90;;;;;;5087322;28;20041;-68
2023/07/17 05:59:44;;;;;;;12.03;2.57;;;16.10;99.90;;;;;;5089812;28;20103;-68
2023/07/17 06:02:09;;;;;;;7.00;3.23;;;15.90;99.90;;;;;;5085304;28;20017;-68
2023/07/17 06:04:35;;;;;;;8.57;3.03;;;15.80;99.90;;;;;;5075022;28;20062;-77
2023/07/17 06:07:01;;;;;;;9.53;3.43;;;15.80;99.90;;;;;;5081923;28;20649;-68
2023/07/17 06:09:26;;;;;;;11.30;3.40;;;15.70;99.90;;;;;;5088671;28;20039;-68
2023/07/17 06:11:52;;;;;;;10.17;4.37;;;15.70;99.90;;;;;;5085932;28;20158;-67
2023/07/17 06:14:18;;;;;;;11.57;4.03;;;15.80;99.90;;;;;;5094179;28;20107;-68
2023/07/17 06:16:44;;;;;;;13.13;4.00;;;15.80;99.90;;;;;;5096038;28;20020;-67
2023/07/17 06:19:09;;;;;;;13.83;3.90;;;15.90;99.90;;;;;;5094242;28;20107;-68
2023/07/17 06:21:35;;;;;;;16.97;3.67;;;15.90;99.90;;;;;;5090972;28;20078;-68
2023/07/17 06:24:01;;;;;;;13.97;4.40;;;16.00;99.90;;;;;;5075702;28;20081;-67
2023/07/17 06:26:26;;;;;;;12.27;4.10;;;16.10;99.90;;;;;;5095836;28;20055;-68
2023/07/17 06:28:52;;;;;;;13.20;4.53;;;16.20;99.90;;;;;;5095657;28;20030;-67
2023/07/17 06:31:18;;;;;;;10.20;3.50;;;16.20;99.90;;;;;;5092366;28;20039;-68
2023/07/17 06:33:43;;;;;;;20.30;6.07;;;16.30;99.90;;;;;;5085942;28;20031;-68
2023/07/17 06:36:09;;;;;;;13.60;4.03;;;16.40;99.90;;;;;;5089964;28;20070;-68
2023/07/17 06:38:34;;;;;;;10.20;3.50;;;16.50;99.90;;;;;;5074930;28;20020;-68
2023/07/17 06:41:01;;;;;;;15.33;4.60;;;16.50;99.90;;;;;;5091919;28;20027;-68
2023/07/17 06:43:27;;;;;;;12.63;4.32;;;16.50;99.90;;;;;;5091600;28;20024;-68
2023/07/17 06:45:52;;;;;;;9.07;3.57;;;16.50;99.90;;;;;;5091883;28;20032;-66
2023/07/17 06:48:18;;;;;;;7.30;4.27;;;16.50;99.90;;;;;;5092455;28;20056;-71
2023/07/17 06:50:45;;;;;;;14.23;4.13;;;16.40;99.90;;;;;;5088863;28;20024;-79
2023/07/17 06:53:11;;;;;;;9.10;3.58;;;16.50;99.90;;;;;;5094570;28;20181;-68
2023/07/17 06:55:37;;;;;;;16.27;4.73;;;16.50;99.90;;;;;;5076443;28;20486;-68
2023/07/17 06:58:02;;;;;;;9.30;4.33;;;16.70;99.90;;;;;;5094832;28;20157;-68
2023/07/17 07:00:28;;;;;;;9.20;4.07;;;16.70;99.90;;;;;;5094967;28;20081;-68
2023/07/17 07:02:54;;;;;;;9.13;3.77;;;16.70;99.90;;;;;;5069004;28;20288;-67
2023/07/17 07:05:19;;;;;;;9.73;3.53;;;16.70;99.90;;;;;;5093348;28;20055;-77
2023/07/17 07:07:45;;;;;;;14.90;3.90;;;16.90;99.90;;;;;;5085430;28;20433;-67
2023/07/17 07:10:11;;;;;;;16.03;4.23;;;16.90;99.90;;;;;;5091210;28;20038;-68
2023/07/17 07:12:36;;;;;;;12.60;4.03;;;17.00;99.90;;;;;;5094732;28;20027;-67
2023/07/17 07:15:03;;;;;;;10.97;3.33;;;16.90;99.90;;;;;;5066835;28;20446;-67
2023/07/17 07:17:30;;;;;;;8.13;3.42;;;16.90;99.90;;;;;;5093080;28;20024;-67
2023/07/17 07:19:55;;;;;;;13.73;3.40;;;17.00;99.90;;;;;;5090300;28;20020;-66
2023/07/17 07:22:21;;;;;;;13.33;2.77;;;17.00;99.90;;;;;;5082294;28;20028;-66
2023/07/17 07:24:47;;;;;;;5.38;2.67;;;16.90;99.90;;;;;;5093556;28;20318;-68
2023/07/17 07:27:13;;;;;;;11.07;2.33;;;16.90;99.90;;;;;;5089437;28;20024;-79
2023/07/17 07:29:38;;;;;;;4.97;2.13;;;17.10;99.90;;;;;;5082928;28;20023;-67
2023/07/17 07:32:04;;;;;;;3.40;1.97;;;17.20;99.90;;;;;;5089758;28;20032;-86
2023/07/17 07:34:30;;;;;;;6.60;2.15;;;17.20;99.90;;;;;;5094447;28;20028;-67
2023/07/17 07:36:56;;;;;;;7.47;2.57;;;17.30;99.90;;;;;;5095075;28;20028;-67
2023/07/17 07:39:21;;;;;;;7.53;2.10;;;17.40;99.90;;;;;;5094333;28;20405;-67
2023/07/17 07:41:47;;;;;;;5.27;2.30;;;17.50;99.90;;;;;;5093907;28;20445;-67
2023/07/17 07:44:13;;;;;;;6.47;2.63;;;17.60;99.90;;;;;;5086574;28;20115;-66
2023/07/17 07:46:39;;;;;;;5.87;1.80;;;17.60;99.90;;;;;;5086405;28;20028;-66
2023/07/17 07:49:04;;;;;;;8.35;2.00;;;17.70;99.90;;;;;;5092006;28;20036;-86
2023/07/17 07:51:30;;;;;;;6.07;2.30;;;17.70;99.90;;;;;;5094363;28;20031;-66
2023/07/17 07:53:56;;;;;;;8.60;2.20;;;17.70;99.90;;;;;;5091659;28;20361;-67
2023/07/17 07:56:21;;;;;;;10.20;2.00;;;17.70;99.90;;;;;;5092871;28;20111;-67
2023/07/17 07:58:48;;;;;;;4.60;1.70;;;17.70;99.90;;;;;;5094351;28;20099;-83
2023/07/17 08:01:14;;;;;;;;;;;17.80;99.90;;;;;;5093433;28;20438;-66
2023/07/17 08:03:40;;;;;;;6.00;1.87;;;17.90;99.90;;;;;;5093883;28;19908;-66
2023/07/17 08:06:06;;;;;;;3.70;2.05;;;18.10;99.90;;;;;;5088643;28;20020;-67
2023/07/17 08:08:32;;;;;;;7.57;2.38;;;18.20;99.90;;;;;;5092751;28;20047;-67
2023/07/17 08:10:58;;;;;;;7.80;2.23;;;18.10;99.90;;;;;;5081814;28;20032;-67
2023/07/17 08:13:23;;;;;;;3.60;1.83;;;18.30;99.90;;;;;;5076194;28;20082;-67
2023/07/17 08:15:49;;;;;;;5.93;1.73;;;18.30;99.90;;;;;;5088005;28;20026;-67
2023/07/17 08:18:16;;;;;;;7.37;1.93;;;18.40;99.90;;;;;;5085181;28;20020;-68
2023/07/17 08:20:42;;;;;;;4.30;1.95;;;18.40;99.90;;;;;;5081316;28;20039;-66
2023/07/17 08:23:08;;;;;;;3.78;1.65;;;18.40;99.90;;;;;;5090758;28;20024;-67
2023/07/17 08:25:33;;;;;;;3.67;1.77;;;18.30;99.90;;;;;;5076275;28;20389;-66
2023/07/17 08:27:59;;;;;;;9.17;2.07;;;18.40;99.90;;;;;;5094549;28;20028;-67
2023/07/17 08:30:25;;;;;;;6.57;1.40;;;18.50;99.90;;;;;;5091729;28;20422;-66
2023/07/17 08:32:50;;;;;;;9.77;1.83;;;18.60;99.90;;;;;;5093108;28;20020;-68
2023/07/17 08:35:16;;;;;;;3.17;1.20;;;18.70;99.90;;;;;;5092357;28;20071;-66
2023/07/17 08:37:42;;;;;;;4.80;1.80;;;18.80;99.90;;;;;;5091591;28;20411;-86
2023/07/17 08:40:10;;;;;;;5.33;1.60;;;18.90;99.90;;;;;;5089043;28;20245;-66
2023/07/17 08:42:37;;;;;;;2.40;1.40;;;19.00;99.90;;;;;;5093167;28;20050;-67
2023/07/17 08:45:04;;;;;;;2.35;1.55;;;19.00;99.90;;;;;;5084763;28;20019;-66
2023/07/17 08:47:30;;;;;;;3.42;1.25;;;19.00;99.90;;;;;;5085552;28;20043;-68
2023/07/17 08:49:58;;;;;;;6.25;1.80;;;19.20;99.90;;;;;;5091229;28;20028;-82
2023/07/17 08:52:27;;;;;;;6.57;1.77;;;19.20;99.90;;;;;;5085881;28;20092;-66
2023/07/17 08:54:53;;;;;;;3.92;1.45;;;19.30;99.90;;;;;;5097912;28;20062;-66
2023/07/17 08:57:20;;;;;;;3.10;1.63;;;19.40;99.90;;;;;;5091973;28;20020;-67
2023/07/17 08:59:46;;;;;;;3.17;1.25;;;19.40;99.90;;;;;;5093382;28;20099;-65
2023/07/17 09:02:11;;;;;;;5.40;1.77;;;19.50;99.90;;;;;;5097291;28;20437;-66
2023/07/17 09:04:37;;;;;;;8.67;1.80;;;19.80;99.90;;;;;;5097515;28;20264;-66
2023/07/17 09:07:03;;;;;;;5.87;1.87;;;20.00;99.90;;;;;;5096401;28;20065;-66
2023/07/17 09:09:29;;;;;;;3.38;1.30;;;20.20;99.90;;;;;;5090707;28;20110;-66
2023/07/17 09:12:11;;;;;;;3.37;1.10;;;20.20;99.90;;;;;;5094335;28;20059;-67
2023/07/17 09:14:38;;;;;;;7.93;1.30;;;20.10;99.90;;;;;;5086749;28;20143;-66
2023/07/17 09:17:07;;;;;;;2.65;1.13;;;20.30;99.90;;;;;;5069652;28;20031;-67
2023/07/17 09:19:34;;;;;;;6.50;1.42;;;20.50;99.90;;;;;;5092746;28;20028;-66
2023/07/17 09:22:02;;;;;;;7.32;1.98;;;20.20;99.90;;;;;;5086681;28;20031;-67
2023/07/17 09:24:28;;;;;;;5.85;1.60;;;20.20;99.90;;;;;;5083074;28;20092;-67
2023/07/17 09:26:56;;;;;;;2.60;1.20;;;20.20;99.90;;;;;;5086310;28;20023;-67
2023/07/17 09:29:23;;;;;;;3.40;1.05;;;20.00;99.90;;;;;;5090314;28;20013;-67
2023/07/17 09:31:49;;;;;;;3.53;1.23;;;19.80;99.90;;;;;;5084838;28;20429;-66
2023/07/17 09:34:15;;;;;;;1.93;0.93;;;19.60;99.90;;;;;;5084357;28;20032;-67
2023/07/17 09:36:41;;;;;;;6.45;1.85;;;19.40;99.90;;;;;;5095081;28;20031;-66
2023/07/17 09:39:08;;;;;;;3.53;1.20;;;19.60;99.90;;;;;;5074591;28;20048;-67
2023/07/17 09:41:34;;;;;;;6.65;1.45;;;19.80;99.90;;;;;;5078823;28;20089;-66
2023/07/17 09:44:02;;;;;;;3.13;1.53;;;20.20;99.90;;;;;;5096055;28;20399;-67
2023/07/17 09:46:29;;;;;;;3.90;1.27;;;20.50;99.90;;;;;;5092024;28;20028;-67
2023/07/17 09:48:55;;;;;;;3.38;1.35;;;20.90;99.90;;;;;;5089289;28;20048;-67
2023/07/17 09:51:21;;;;;;;3.35;1.50;;;20.90;99.90;;;;;;5092720;28;20047;-66
2023/07/17 09:53:48;;;;;;;5.10;1.35;;;20.90;99.90;;;;;;5075672;28;20016;-67
2023/07/17 09:56:15;;;;;;;5.03;1.48;;;21.00;99.90;;;;;;5065629;28;20046;-68
2023/07/17 09:58:49;;;;;;;6.07;1.77;;;21.00;99.90;;;;;;5092407;28;20016;-68
2023/07/17 10:01:19;;;;;;;4.47;1.08;;;20.70;99.90;;;;;;5096355;28;20024;-66
2023/07/17 10:03:47;;;;;;;3.58;1.35;;;20.20;99.90;;;;;;5090143;28;20017;-68
2023/07/17 10:06:15;;;;;;;3.80;1.33;;;20.10;99.90;;;;;;5088913;28;20506;-67
2023/07/17 10:08:48;;;;;;;3.92;1.00;;;19.90;99.90;;;;;;5095599;28;20028;-67
2023/07/17 10:11:18;;;;;;;3.38;1.38;;;19.80;99.90;;;;;;5093939;28;20066;-68
2023/07/17 10:13:46;;;;;;;5.18;1.55;;;19.70;99.90;;;;;;5090564;28;20055;-67
2023/07/17 10:16:14;;;;;;;3.05;1.02;;;19.60;99.90;;;;;;5093233;28;20028;-67
2023/07/17 10:18:49;;;;;;;3.00;1.17;;;19.50;99.90;;;;;;5089129;28;20024;-67
2023/07/17 10:21:17;;;;;;;6.03;1.90;;;19.40;99.90;;;;;;5090865;28;20106;-66
2023/07/17 10:23:44;;;;;;;1.67;1.13;;;19.30;99.90;;;;;;5091745;28;20081;-67
2023/07/17 10:26:12;;;;;;;2.63;0.82;;;19.30;99.90;;;;;;5092563;28;20031;-68
2023/07/17 10:28:38;;;;;;;2.88;1.15;;;19.70;99.90;;;;;;5092448;28;20028;-83
2023/07/17 10:31:24;;;;;;;3.95;1.20;;;20.10;99.90;;;;;;5093634;28;20488;-84
2023/07/17 10:33:52;;;;;;;5.05;1.40;;;20.60;99.90;;;;;;5087005;28;20032;-67
2023/07/17 10:36:19;;;;;;;2.25;1.08;;;20.90;99.90;;;;;;5090658;28;20059;-88
2023/07/17 10:38:51;;;;;;;4.53;1.10;;;20.70;99.90;;;;;;5096124;28;20035;-80
2023/07/17 10:41:17;;;;;;;8.25;1.30;;;20.80;99.90;;;;;;5085569;28;20028;-80
2023/07/17 10:44:08;;;;;;;4.00;1.30;;;20.30;99.90;;;;;;5094905;28;20016;-80
2023/07/17 10:46:35;;;;;;;5.40;1.20;;;20.20;99.90;;;;;;5086866;28;20039;-78
2023/07/17 10:49:08;;;;;;;3.67;1.30;;;20.00;99.90;;;;;;5095653;28;20115;-68
2023/07/17 10:51:36;;;;;;;4.97;1.70;;;20.00;99.90;;;;;;5093351;28;20036;-72
2023/07/17 10:54:01;;;;;;;4.32;1.65;;;20.00;99.90;;;;;;5092284;28;20031;-67
2023/07/17 10:56:31;;;;;;;3.78;1.92;;;20.10;99.90;;;;;;5080032;28;20033;-67
2023/07/17 10:58:57;;;;;;;4.75;1.65;;;20.20;99.90;;;;;;5094971;28;20523;-67
2023/07/17 11:01:23;;;;;;;2.53;1.67;;;20.70;99.90;;;;;;5083689;28;20116;-92
2023/07/17 11:03:49;;;;;;;8.73;1.70;;;20.90;99.90;;;;;;5057050;28;20101;-78
2023/07/17 11:06:17;;;;;;;7.53;1.48;;;20.90;99.90;;;;;;5086890;28;20265;-76
2023/07/17 11:08:49;;;;;;;3.00;1.42;;;20.60;99.90;;;;;;5066958;28;20039;-67
2023/07/17 11:11:16;;;;;;;5.38;1.55;;;20.50;99.90;;;;;;5078904;28;20036;-67
2023/07/17 11:13:45;;;;;;;;;;;20.30;99.90;;;;;;5083803;28;20154;-67
2023/07/17 11:16:12;;;;;;;5.18;1.42;;;20.10;99.90;;;;;;5078925;28;19912;-68
2023/07/17 11:18:52;;;;;;;6.32;1.83;;;19.80;99.90;;;;;;5076322;28;20035;-67
2023/07/17 11:21:21;;;;;;;5.53;1.70;;;19.50;99.90;;;;;;5082346;28;20459;-79
2023/07/17 11:23:51;;;;;;;6.28;1.67;;;19.40;99.90;;;;;;5093778;28;20020;-68
2023/07/17 11:26:26;;;;;;;6.63;1.88;;;19.20;99.90;;;;;;5093579;28;20166;-68
2023/07/17 11:28:53;;;;;;;5.60;1.63;;;19.10;99.90;;;;;;5091670;28;20070;-68
2023/07/17 11:31:30;;;;;;;4.60;1.70;;;19.00;99.90;;;;;;5091570;28;20074;-67
2023/07/17 11:33:59;;;;;;;3.97;2.17;;;18.90;99.90;;;;;;5076164;28;20035;-67
2023/07/17 11:36:32;;;;;;;2.95;1.40;;;18.70;99.90;;;;;;5091199;28;20024;-67
2023/07/17 11:39:08;;;;;;;3.25;1.85;;;18.70;99.90;;;;;;5085933;28;20017;-67
2023/07/17 11:41:59;;;;;;;5.80;2.13;;;18.70;99.90;;;;;;5090945;28;20024;-67
2023/07/17 11:44:32;;;;;;;5.45;1.73;;;18.80;99.90;;;;;;5083045;28;20036;-67
2023/07/17 11:46:58;;;;;;;5.13;1.67;;;18.60;99.90;;;;;;5092291;28;20023;-82
2023/07/17 11:49:25;;;;;;;5.93;2.00;;;18.60;99.90;;;;;;5089719;28;20021;-67
2023/07/17 11:51:51;;;;;;;5.60;1.98;;;18.40;99.90;;;;;;5088856;28;20020;-67
2023/07/17 11:54:16;;;;;;;3.67;2.03;;;18.20;99.90;;;;;;5094659;28;20051;-67
2023/07/17 11:56:43;;;;;;;5.40;1.53;;;18.10;99.90;;;;;;5090879;28;20119;-67
2023/07/17 11:59:20;;;;;;;3.92;1.58;;;18.00;99.90;;;;;;5086353;28;20450;-67
2023/07/17 12:01:46;;;;;;;;;;;18.00;99.90;;;;;;5092619;28;20029;-78
2023/07/17 12:04:22;;;;;;;5.85;1.92;;;18.10;99.90;;;;;;5084597;28;19918;-67
2023/07/17 12:06:48;;;;;;;;;;;18.50;99.90;;;;;;5088073;28;20021;-67
2023/07/17 12:09:14;;;;;;;4.95;2.03;;;18.90;99.90;;;;;;5088288;28;19912;-67
2023/07/17 12:11:42;;;;;;;7.50;2.17;;;19.20;99.90;;;;;;5086421;28;20028;-67
2023/07/17 12:14:08;;;;;;;7.03;2.03;;;19.50;99.90;;;;;;5087989;28;20288;-67
2023/07/17 12:16:33;;;;;;;4.33;2.03;;;19.50;99.90;;;;;;5092566;28;20035;-67
2023/07/17 12:18:59;;;;;;;7.97;2.57;;;19.70;99.90;;;;;;5088881;28;20296;-69
2023/07/17 12:21:25;;;;;;;10.27;2.50;;;19.90;99.90;;;;;;5089063;28;20028;-67
2023/07/17 12:23:50;;;;;;;8.23;2.23;;;20.30;99.90;;;;;;5075464;28;20016;-67
2023/07/17 12:26:17;;;;;;;5.43;2.47;;;20.60;99.90;;;;;;5091809;28;20035;-67
2023/07/17 12:28:43;;;;;;;5.22;1.88;;;20.70;99.90;;;;;;5094551;28;20221;-67
2023/07/17 12:31:08;;;;;;;6.53;1.77;;;20.70;99.90;;;;;;5084806;28;20108;-66
2023/07/17 12:33:34;;;;;;;5.77;1.80;;;20.80;99.90;;;;;;5084397;28;20032;-67
2023/07/17 12:36:00;;;;;;;3.00;1.83;;;21.00;99.90;;;;;;5064844;28;20280;-68
2023/07/17 12:38:26;;;;;;;8.80;2.07;;;21.30;99.90;;;;;;5093068;28;20024;-66
2023/07/17 12:40:51;;;;;;;4.75;1.90;;;21.40;99.90;;;;;;5092182;28;20052;-66
2023/07/17 12:43:17;;;;;;;6.60;2.33;;;21.40;99.90;;;;;;5073031;28;20024;-67